Aérodrome :
LOGIN :

S'inscrire | Disclaimer

   EN    FR    IT 

 










Légende :    VFR   VFR Marginal   IFR   IFR Intensif   IFR Très Intensif
Visi : 
Plafond : 
>= 8 km
>= 3000ft
5 à 8 km
1000 à 3000 ft
1500m à 5 km
500 à 1000 ft
800 à 1500m
200 à 500 ft
< 800m
< 200 ft
Symboles :   Orages  Brouillard  Fortes neiges  Fortes précipitations  Vent > 20 kt
SIGMETs :   Divers  Orages  Givrage  Turbulence  Onde Orograph.  Cendres Volcan.






- Altitude de l'aérodrome : 125 ft
- Code IATA : MGL


EDLN - Mönchengladbach

DERNIER METAR :
  • 161750Z 00000KT CAVOK 16/13 Q1017

METARs EXPIRÉS :
  • 161720Z 30004KT 260V320 CAVOK 18/13 Q1017
  • 161650Z 29006KT 260V330 CAVOK 19/12 Q1017
  • 161620Z 29006KT 250V310 9999 BKN045 19/12 Q1016
  • 161550Z 27005KT 210V310 9999 SCT045 19/12 Q1016

TAF TAF EDLN
Valide du 16 à 18h jusqu'au 17 à 03h UTC


161700Z 1618/1703 29005KT 9999 FEW040
BECMG 1618/1620 VRB02KT
BECMG 1700/1702 3000 BCFG
TEMPO 1702/1703 1200 BCFG



MET'MAP, la Météo Aéronautique d'un coup d'oeil ! - Copyright ORBIFLY Décembre 2007 - Disclaimer

ORBIFLY MET'MAP TEAM :

Programmation & Développement : Alexandra Zaïnal
Sur une idée originale de : Baudouin d'Aumeries
Assistance à la programmation : Marc-Olivier Méhu
Soutien technique & logistique : Manuel Goepfert

Contact : metmap@orbifly.com




SOURCES & CREDITS :

   NOAA